Time;durP1;ratioP1;P1;durP2;ratioP2;P2;SDS_P1;SDS_P2;PMS_P1;PMS_P2;Temp;Humidity;BMP_temperature;BMP_pressure;BME280_temperature;BME280_humidity;BME280_pressure;Samples;Min_cycle;Max_cycle;Signal;HPM_P1;HPM_P2
2021/09/04 04:36:38;;;;;;;26.13;12.93;;;17.00;92.30;;;;;;5080322;28;20393;-61
2021/09/04 04:39:04;;;;;;;20.10;12.18;;;16.70;90.90;;;;;;5060280;28;20102;-61
2021/09/04 04:41:30;;;;;;;19.15;12.57;;;16.30;91.00;;;;;;5060150;28;20031;-61
2021/09/04 04:43:55;;;;;;;20.15;12.60;;;16.20;91.60;;;;;;5060990;28;20025;-62
2021/09/04 04:46:21;;;;;;;20.05;13.20;;;16.00;91.80;;;;;;5063026;28;20074;-62
2021/09/04 04:48:46;;;;;;;20.10;12.80;;;15.90;91.20;;;;;;5059223;28;20392;-62
2021/09/04 04:51:12;;;;;;;29.52;12.88;;;15.90;91.50;;;;;;5059881;28;20040;-61
2021/09/04 04:53:37;;;;;;;19.98;12.75;;;15.80;91.70;;;;;;5059314;28;20392;-62
2021/09/04 04:56:03;;;;;;;20.38;12.43;;;15.80;91.90;;;;;;5040465;28;20029;-61
2021/09/04 04:58:29;;;;;;;19.60;12.13;;;15.80;91.90;;;;;;5049878;28;20028;-61
2021/09/04 05:00:55;;;;;;;28.42;12.98;;;15.70;91.80;;;;;;5060769;28;20493;-61
2021/09/04 05:03:20;;;;;;;26.90;12.75;;;15.60;92.20;;;;;;5059750;28;20027;-61
2021/09/04 05:05:46;;;;;;;24.73;12.60;;;16.00;92.40;;;;;;5060805;28;20071;-62
2021/09/04 05:08:11;;;;;;;17.73;11.30;;;16.20;91.70;;;;;;5061070;28;20025;-61
2021/09/04 05:10:37;;;;;;;22.08;11.85;;;16.50;91.20;;;;;;5060196;28;20036;-62
2021/09/04 05:13:02;;;;;;;21.23;13.00;;;16.60;90.90;;;;;;5060036;28;20028;-61
2021/09/04 05:15:28;;;;;;;23.33;12.77;;;16.60;91.00;;;;;;5060534;28;20025;-61
2021/09/04 05:17:53;;;;;;;18.27;11.95;;;16.70;91.00;;;;;;5061103;28;20028;-61
2021/09/04 05:20:19;;;;;;;19.63;12.30;;;16.80;91.00;;;;;;5061712;28;20037;-62
2021/09/04 05:22:46;;;;;;;18.42;11.45;;;16.80;91.10;;;;;;5061397;28;20103;-61
2021/09/04 05:25:13;;;;;;;23.65;12.30;;;16.80;91.10;;;;;;5060084;28;20159;-61
2021/09/04 05:27:38;;;;;;;20.58;11.75;;;16.80;91.20;;;;;;5061612;28;20021;-62
2021/09/04 05:30:05;;;;;;;19.65;12.10;;;16.80;90.90;;;;;;5061434;28;20032;-61
2021/09/04 05:32:30;;;;;;;18.85;11.63;;;16.80;90.80;;;;;;5061334;28;20021;-61
2021/09/04 05:34:59;;;;;;;19.80;11.82;;;16.80;90.70;;;;;;5060912;28;20568;-61
2021/09/04 05:37:25;;;;;;;20.35;11.95;;;16.80;90.80;;;;;;5061437;28;20025;-62
2021/09/04 05:39:51;;;;;;;18.55;11.07;;;16.80;90.90;;;;;;5061079;28;20156;-62
2021/09/04 05:42:16;;;;;;;16.70;11.57;;;16.80;90.80;;;;;;5061127;28;20502;-62
2021/09/04 05:44:42;;;;;;;17.52;10.98;;;16.80;91.00;;;;;;5060791;28;20037;-63
2021/09/04 05:47:07;;;;;;;19.23;12.40;;;16.80;91.00;;;;;;5050245;28;20059;-61
2021/09/04 05:49:33;;;;;;;17.98;12.13;;;16.80;91.20;;;;;;5047961;28;20021;-62
2021/09/04 05:51:58;;;;;;;17.23;11.70;;;16.80;91.20;;;;;;5046486;28;20025;-62
2021/09/04 05:54:24;;;;;;;18.95;11.32;;;16.80;91.20;;;;;;5047397;28;20095;-62
2021/09/04 05:56:49;;;;;;;20.55;12.60;;;16.80;91.20;;;;;;5047750;28;20102;-62
2021/09/04 05:59:15;;;;;;;17.33;11.95;;;16.80;91.30;;;;;;5047931;28;20538;-61
2021/09/04 06:01:40;;;;;;;17.70;11.48;;;16.80;91.30;;;;;;5046108;28;20559;-61
2021/09/04 06:04:06;;;;;;;17.33;12.55;;;16.80;91.30;;;;;;5045992;28;20554;-62
2021/09/04 06:06:31;;;;;;;16.38;11.60;;;16.80;91.30;;;;;;5046064;28;20307;-61
2021/09/04 06:08:59;;;;;;;16.25;11.68;;;16.80;91.30;;;;;;5046016;28;20028;-62
2021/09/04 06:11:24;;;;;;;18.52;11.20;;;16.80;91.30;;;;;;5047450;28;20465;-61
2021/09/04 06:13:50;;;;;;;17.38;11.95;;;16.80;91.30;;;;;;5047460;28;20037;-61
2021/09/04 06:16:15;;;;;;;16.75;11.48;;;16.80;91.40;;;;;;5047453;28;20029;-61
2021/09/04 06:18:41;;;;;;;17.70;11.43;;;16.80;91.40;;;;;;5045901;28;20115;-61
2021/09/04 06:21:06;;;;;;;16.55;11.30;;;16.80;91.40;;;;;;5047499;28;20029;-61
2021/09/04 06:23:32;;;;;;;18.20;12.10;;;16.80;91.30;;;;;;5046842;28;20021;-61
2021/09/04 06:25:57;;;;;;;17.13;12.27;;;16.80;91.40;;;;;;5047547;28;20021;-62
2021/09/04 06:28:23;;;;;;;18.65;12.20;;;16.80;91.40;;;;;;5047155;28;20025;-62
2021/09/04 06:30:48;;;;;;;17.80;11.98;;;16.80;91.40;;;;;;5047225;28;20108;-61
2021/09/04 06:33:14;;;;;;;17.75;11.95;;;16.80;91.30;;;;;;5046740;28;20057;-61
2021/09/04 06:35:39;;;;;;;18.50;12.23;;;16.80;91.40;;;;;;5047033;28;20457;-61
2021/09/04 06:38:05;;;;;;;16.80;12.00;;;16.80;91.40;;;;;;5045800;28;20506;-62
2021/09/04 06:40:31;;;;;;;15.77;11.27;;;16.80;91.30;;;;;;5046973;28;20072;-61
2021/09/04 06:42:56;;;;;;;18.35;10.93;;;16.80;91.30;;;;;;5046970;28;20074;-62
2021/09/04 06:45:22;;;;;;;17.20;11.15;;;16.80;91.20;;;;;;5045418;28;20481;-62
2021/09/04 06:47:47;;;;;;;19.55;11.88;;;16.80;91.30;;;;;;5045557;28;20603;-62
2021/09/04 06:50:13;;;;;;;18.80;11.93;;;16.80;91.20;;;;;;5046444;28;20029;-61
2021/09/04 06:52:38;;;;;;;18.00;11.77;;;16.80;91.10;;;;;;5046344;28;20033;-62
2021/09/04 06:55:04;;;;;;;19.63;11.77;;;16.80;91.00;;;;;;5045203;28;20341;-62
2021/09/04 06:57:30;;;;;;;15.93;11.32;;;16.80;91.00;;;;;;5046275;28;20025;-61
2021/09/04 06:59:55;;;;;;;19.35;11.52;;;16.80;91.00;;;;;;5046085;28;20489;-61
2021/09/04 07:02:21;;;;;;;17.25;11.07;;;16.80;90.80;;;;;;5046604;28;20032;-61
2021/09/04 07:04:46;;;;;;;17.02;11.40;;;16.80;90.90;;;;;;5046782;28;20032;-62
2021/09/04 07:07:12;;;;;;;18.25;10.65;;;16.80;90.90;;;;;;5044932;28;20035;-62
2021/09/04 07:09:38;;;;;;;18.13;11.60;;;16.80;90.90;;;;;;5045031;28;20029;-62
2021/09/04 07:12:03;;;;;;;16.33;10.93;;;16.80;91.00;;;;;;5044879;28;20025;-61
2021/09/04 07:14:29;;;;;;;16.38;11.02;;;16.80;90.80;;;;;;5044791;28;20041;-61
2021/09/04 07:16:54;;;;;;;17.25;10.18;;;16.80;90.90;;;;;;5045975;28;20044;-61
2021/09/04 07:19:20;;;;;;;16.70;10.48;;;16.80;90.90;;;;;;5046268;28;20044;-61
2021/09/04 07:21:46;;;;;;;17.80;10.95;;;16.80;90.90;;;;;;5045949;28;20021;-62
2021/09/04 07:24:11;;;;;;;15.60;9.85;;;16.80;90.70;;;;;;5045962;28;20036;-61
2021/09/04 07:26:37;;;;;;;17.00;11.15;;;16.80;90.70;;;;;;5042381;28;20620;-61
2021/09/04 07:29:02;;;;;;;15.63;10.73;;;16.90;90.80;;;;;;5045185;28;20032;-62
2021/09/04 07:31:28;;;;;;;14.15;10.27;;;16.80;90.60;;;;;;5044569;28;20029;-63
2021/09/04 07:33:54;;;;;;;15.27;10.32;;;16.80;90.60;;;;;;5044825;28;20473;-61
2021/09/04 07:36:19;;;;;;;16.50;10.48;;;16.90;90.70;;;;;;5045702;28;20045;-62
2021/09/04 07:38:45;;;;;;;15.95;10.68;;;16.90;90.60;;;;;;5044415;28;20036;-61
2021/09/04 07:41:10;;;;;;;17.45;9.88;;;16.80;90.60;;;;;;5045754;28;20021;-62
2021/09/04 07:43:36;;;;;;;16.48;10.25;;;16.90;90.50;;;;;;5043841;28;20543;-61
2021/09/04 07:46:02;;;;;;;14.93;10.55;;;16.90;90.50;;;;;;5046142;28;20032;-61
2021/09/04 07:48:28;;;;;;;14.88;9.85;;;16.90;90.50;;;;;;5045720;28;20042;-61
2021/09/04 07:50:55;;;;;;;15.50;9.63;;;16.90;90.60;;;;;;5045881;28;20060;-61
2021/09/04 07:53:21;;;;;;;15.23;10.13;;;16.90;90.70;;;;;;5045363;28;20421;-61
2021/09/04 07:55:47;;;;;;;13.05;9.30;;;16.90;90.40;;;;;;5045873;28;20134;-61
2021/09/04 07:58:12;;;;;;;15.65;10.82;;;16.90;90.70;;;;;;5045355;28;20028;-61
2021/09/04 08:00:39;;;;;;;16.00;9.52;;;16.90;90.50;;;;;;5045645;28;20508;-61
2021/09/04 08:03:04;;;;;;;13.30;9.05;;;16.90;90.70;;;;;;5043622;28;20052;-62
2021/09/04 08:05:30;;;;;;;13.32;9.60;;;16.90;90.60;;;;;;5045454;28;20499;-62
2021/09/04 08:07:55;;;;;;;17.88;9.38;;;16.90;90.80;;;;;;5045310;28;20036;-61
2021/09/04 08:10:21;;;;;;;14.52;9.55;;;16.90;90.80;;;;;;5045291;28;20039;-61
2021/09/04 08:12:46;;;;;;;16.80;9.80;;;16.90;90.80;;;;;;5044990;28;20110;-62
2021/09/04 08:15:12;;;;;;;14.35;9.50;;;16.80;90.80;;;;;;5043804;28;20032;-61
2021/09/04 08:17:38;;;;;;;15.80;9.77;;;16.90;90.70;;;;;;5045602;28;20055;-62
2021/09/04 08:20:04;;;;;;;14.82;9.43;;;16.90;90.70;;;;;;5045246;28;20060;-61
2021/09/04 08:22:30;;;;;;;14.90;9.15;;;16.90;90.40;;;;;;5043440;28;20039;-63
2021/09/04 08:24:56;;;;;;;14.43;9.57;;;16.90;90.60;;;;;;5043810;28;20029;-61
2021/09/04 08:27:22;;;;;;;13.82;8.77;;;16.90;90.50;;;;;;5043746;28;20029;-62
2021/09/04 08:29:47;;;;;;;14.43;8.80;;;16.90;90.50;;;;;;5043690;28;20378;-61
2021/09/04 08:32:13;;;;;;;13.07;9.40;;;16.90;90.40;;;;;;5043655;28;20025;-61
2021/09/04 08:34:38;;;;;;;15.40;9.30;;;16.90;90.50;;;;;;5042901;28;20037;-61
2021/09/04 08:37:04;;;;;;;15.60;8.73;;;16.90;90.40;;;;;;5043558;28;20029;-62
2021/09/04 08:39:30;;;;;;;14.88;9.13;;;16.90;90.50;;;;;;5044966;28;20061;-60
2021/09/04 08:41:56;;;;;;;14.57;10.48;;;16.90;90.50;;;;;;5044907;28;20489;-61
2021/09/04 08:44:21;;;;;;;13.68;8.98;;;16.90;90.60;;;;;;5043010;28;20033;-61
2021/09/04 08:46:49;;;;;;;12.73;8.77;;;16.90;90.80;;;;;;5045013;28;20036;-62
2021/09/04 08:49:15;;;;;;;16.63;9.57;;;16.90;90.50;;;;;;5044742;28;20032;-61
2021/09/04 08:51:41;;;;;;;13.23;8.95;;;17.00;90.50;;;;;;5045175;28;20501;-61
2021/09/04 08:54:07;;;;;;;13.55;8.88;;;16.90;90.50;;;;;;5043073;28;20435;-61
2021/09/04 08:56:33;;;;;;;15.70;9.20;;;16.90;90.40;;;;;;5044944;28;20025;-61
2021/09/04 08:58:59;;;;;;;14.98;9.15;;;16.90;90.40;;;;;;5044888;28;20052;-61
2021/09/04 09:01:27;;;;;;;13.45;8.95;;;16.90;90.60;;;;;;5043398;28;20025;-61
2021/09/04 09:03:54;;;;;;;15.10;9.93;;;16.90;90.60;;;;;;5043628;28;20029;-61
2021/09/04 09:06:28;;;;;;;13.50;8.75;;;16.90;90.60;;;;;;5044639;28;20105;-62
2021/09/04 09:08:54;;;;;;;14.98;8.90;;;16.90;90.70;;;;;;5044581;28;20036;-62
2021/09/04 09:11:21;;;;;;;13.30;8.73;;;16.90;90.40;;;;;;5044977;28;20623;-61
2021/09/04 09:13:49;;;;;;;14.88;9.07;;;16.90;90.30;;;;;;5042950;28;20569;-61
2021/09/04 09:16:17;;;;;;;13.27;9.05;;;17.00;90.20;;;;;;5044589;28;20465;-61
2021/09/04 09:18:55;;;;;;;13.65;8.45;;;17.00;90.40;;;;;;5044613;28;20032;-61
2021/09/04 09:21:20;;;;;;;14.45;8.38;;;17.00;90.30;;;;;;5046027;28;20515;-61
2021/09/04 09:24:04;;;;;;;13.65;8.30;;;17.00;90.40;;;;;;5048160;28;20435;-62
2021/09/04 09:26:30;;;;;;;13.70;8.45;;;17.00;90.60;;;;;;5048579;28;20037;-61
2021/09/04 09:29:17;;;;;;;14.65;8.85;;;17.10;90.70;;;;;;5048326;28;20033;-61
2021/09/04 09:31:44;;;;;;;13.55;8.63;;;17.00;90.60;;;;;;5046856;28;20039;-61
2021/09/04 09:34:10;;;;;;;13.15;8.48;;;17.00;90.60;;;;;;5046402;28;20522;-62
2021/09/04 09:37:00;;;;;;;12.73;8.55;;;17.10;90.50;;;;;;5046889;28;20029;-62
2021/09/04 09:39:28;;;;;;;12.52;7.82;;;17.10;90.50;;;;;;5048295;28;20025;-61
2021/09/04 09:41:55;;;;;;;12.20;8.07;;;17.10;90.10;;;;;;5048325;28;20031;-61
2021/09/04 09:44:22;;;;;;;14.48;8.32;;;17.10;90.00;;;;;;5047754;28;20299;-61
2021/09/04 09:46:59;;;;;;;11.73;7.32;;;17.10;90.10;;;;;;5048443;28;20021;-61
2021/09/04 09:49:31;;;;;;;11.45;7.65;;;17.10;90.00;;;;;;5046502;28;20033;-62
2021/09/04 09:52:05;;;;;;;12.82;8.13;;;17.10;90.00;;;;;;5047878;28;20083;-61
2021/09/04 09:54:32;;;;;;;13.27;7.47;;;17.10;90.40;;;;;;5047529;28;20041;-61
2021/09/04 09:57:05;;;;;;;12.77;7.57;;;17.10;90.20;;;;;;5047755;28;20033;-61
2021/09/04 09:59:31;;;;;;;12.07;7.32;;;17.10;90.20;;;;;;5046348;28;20374;-62
2021/09/04 10:02:07;;;;;;;12.30;8.20;;;17.10;90.10;;;;;;5046428;28;20103;-61
2021/09/04 10:04:35;;;;;;;12.85;8.07;;;17.10;89.60;;;;;;5047514;28;20112;-61
2021/09/04 10:07:08;;;;;;;14.30;7.57;;;17.10;89.80;;;;;;5046140;28;20037;-61
2021/09/04 10:09:39;;;;;;;11.98;7.95;;;17.10;90.00;;;;;;5046230;28;20040;-61
2021/09/04 10:12:06;;;;;;;11.83;7.13;;;17.10;89.50;;;;;;5047614;28;20025;-62
2021/09/04 10:14:32;;;;;;;12.32;7.80;;;17.10;90.00;;;;;;5047030;28;20400;-62
2021/09/04 10:17:00;;;;;;;12.77;7.53;;;17.10;90.00;;;;;;5046072;28;20021;-61
2021/09/04 10:19:28;;;;;;;12.98;7.93;;;17.10;90.00;;;;;;5047562;28;20540;-61
2021/09/04 10:22:05;;;;;;;13.25;7.72;;;17.10;90.00;;;;;;5047341;28;20485;-61
2021/09/04 10:24:51;;;;;;;13.98;8.00;;;17.10;90.10;;;;;;5046784;28;20097;-62
2021/09/04 10:27:40;;;;;;;11.98;7.47;;;17.10;90.20;;;;;;5047259;28;20029;-61
2021/09/04 10:30:24;;;;;;;13.27;7.40;;;17.10;90.30;;;;;;5047294;28;20405;-61
2021/09/04 10:33:09;;;;;;;13.80;7.57;;;17.10;90.20;;;;;;5046871;28;20044;-61
2021/09/04 10:35:39;;;;;;;12.60;7.38;;;17.10;90.20;;;;;;5045567;28;20029;-61
2021/09/04 10:38:26;;;;;;;14.57;7.55;;;17.20;89.80;;;;;;5046916;28;20268;-61
2021/09/04 10:41:12;;;;;;;10.75;7.00;;;17.20;89.80;;;;;;5047229;28;20029;-61
2021/09/04 10:43:44;;;;;;;12.68;7.70;;;17.20;90.30;;;;;;5046209;28;20218;-61
2021/09/04 10:46:12;;;;;;;12.50;7.43;;;17.10;90.00;;;;;;5045479;28;20659;-61
2021/09/04 10:48:38;;;;;;;11.45;7.22;;;17.20;90.30;;;;;;5046801;28;20036;-61
2021/09/04 10:51:09;;;;;;;11.02;7.15;;;17.20;90.00;;;;;;5046941;28;20029;-61
2021/09/04 10:53:46;;;;;;;14.20;7.80;;;17.20;89.60;;;;;;5046502;28;20029;-60
2021/09/04 10:56:30;;;;;;;12.00;7.25;;;17.20;89.10;;;;;;5046858;28;20429;-62
2021/09/04 10:58:55;;;;;;;13.45;7.32;;;17.20;89.60;;;;;;5046587;28;20086;-62
2021/09/04 11:01:24;;;;;;;11.13;6.82;;;17.20;89.30;;;;;;5045516;28;20021;-61
2021/09/04 11:03:52;;;;;;;11.82;7.00;;;17.20;89.60;;;;;;5044932;28;20025;-63
2021/09/04 11:06:20;;;;;;;11.45;7.55;;;17.20;90.00;;;;;;5046687;28;20025;-61
2021/09/04 11:08:47;;;;;;;12.77;7.63;;;17.20;89.50;;;;;;5046485;28;20392;-61
2021/09/04 11:11:33;;;;;;;12.57;7.40;;;17.20;89.50;;;;;;5044783;28;20029;-61
2021/09/04 11:14:20;;;;;;;36.88;9.38;;;17.20;89.90;;;;;;5046327;28;20473;-61
2021/09/04 11:16:47;;;;;;;13.95;7.50;;;17.20;87.00;;;;;;5042948;28;20112;-62
2021/09/04 11:19:33;;;;;;;14.02;7.70;;;17.00;85.50;;;;;;5045557;28;20024;-62
2021/09/04 11:22:14;;;;;;;12.77;7.72;;;16.90;86.50;;;;;;5041024;28;20047;-62
2021/09/04 11:24:44;;;;;;;11.30;7.35;;;16.90;86.50;;;;;;5040904;28;20544;-61
2021/09/04 11:27:19;;;;;;;13.20;7.20;;;16.90;85.40;;;;;;5044863;28;20037;-61
2021/09/04 11:29:48;;;;;;;12.55;7.95;;;16.80;86.70;;;;;;5044896;28;20064;-61
2021/09/04 11:32:15;;;;;;;17.70;8.90;;;16.90;86.60;;;;;;5042943;28;20024;-61
2021/09/04 11:34:50;;;;;;;14.13;8.05;;;16.90;87.00;;;;;;5044795;28;20033;-61
2021/09/04 11:37:17;;;;;;;13.48;8.07;;;17.00;87.30;;;;;;5043169;28;20033;-62
2021/09/04 11:39:43;;;;;;;15.65;8.23;;;17.00;87.00;;;;;;5053812;28;20036;-61
2021/09/04 11:42:13;;;;;;;42.00;9.68;;;17.00;85.40;;;;;;5046233;28;20734;-61
2021/09/04 11:44:49;;;;;;;13.70;7.70;;;17.00;85.50;;;;;;5044675;28;20032;-61
2021/09/04 11:47:15;;;;;;;13.23;8.15;;;17.00;84.80;;;;;;5045593;28;20405;-61
2021/09/04 11:49:52;;;;;;;13.93;7.57;;;17.00;85.40;;;;;;5043964;28;20033;-63
2021/09/04 11:52:24;;;;;;;14.00;7.55;;;17.00;86.10;;;;;;5045773;28;20392;-61
2021/09/04 11:54:51;;;;;;;14.27;8.15;;;17.00;85.40;;;;;;5045063;28;20483;-62
2021/09/04 11:57:24;;;;;;;13.20;7.97;;;17.10;86.60;;;;;;5045173;28;20029;-61
2021/09/04 11:59:57;;;;;;;15.27;7.68;;;17.10;87.00;;;;;;5044973;28;20493;-62
2021/09/04 12:02:23;;;;;;;17.58;8.23;;;17.10;86.90;;;;;;5044971;28;20032;-62
2021/09/04 12:04:49;;;;;;;15.10;7.50;;;17.20;87.10;;;;;;5045018;28;20039;-62
2021/09/04 12:07:14;;;;;;;13.20;7.55;;;17.20;85.30;;;;;;5044930;28;20049;-63
2021/09/04 12:09:40;;;;;;;12.63;7.63;;;17.20;85.60;;;;;;5045043;28;20666;-61
2021/09/04 12:12:06;;;;;;;14.00;7.22;;;17.40;86.10;;;;;;5043674;28;20021;-61
2021/09/04 12:14:34;;;;;;;14.48;7.72;;;17.20;85.60;;;;;;5043244;28;20040;-62
2021/09/04 12:17:00;;;;;;;11.65;6.97;;;17.20;84.60;;;;;;5043520;28;20044;-61
2021/09/04 12:19:26;;;;;;;15.05;8.00;;;17.20;85.30;;;;;;5044096;28;20025;-61
2021/09/04 12:21:52;;;;;;;13.32;7.68;;;17.20;86.10;;;;;;5043790;28;20489;-62
2021/09/04 12:24:29;;;;;;;13.95;6.78;;;17.20;85.20;;;;;;5043724;28;20068;-61
2021/09/04 12:26:55;;;;;;;12.90;7.28;;;17.20;85.80;;;;;;5043675;28;20021;-61
2021/09/04 12:29:27;;;;;;;10.80;6.80;;;17.20;85.90;;;;;;5044963;28;20055;-62
2021/09/04 12:32:03;;;;;;;13.63;7.22;;;17.30;86.20;;;;;;5044401;28;20021;-62
2021/09/04 12:34:29;;;;;;;13.18;7.18;;;17.30;86.80;;;;;;5044055;28;20025;-61
2021/09/04 12:36:54;;;;;;;12.88;7.20;;;17.30;86.90;;;;;;5045490;28;20033;-61
2021/09/04 12:39:22;;;;;;;12.07;7.13;;;17.30;87.20;;;;;;5045091;28;20425;-61
2021/09/04 12:41:58;;;;;;;16.35;7.15;;;17.30;86.60;;;;;;5044010;28;20033;-61
2021/09/04 12:44:38;;;;;;;11.93;7.20;;;17.40;86.90;;;;;;5044197;28;20826;-62
2021/09/04 12:47:05;;;;;;;12.93;7.25;;;17.30;85.40;;;;;;5044575;28;20154;-63
2021/09/04 12:49:35;;;;;;;13.27;6.97;;;17.30;85.90;;;;;;5043834;28;20059;-62
2021/09/04 12:52:12;;;;;;;13.35;6.68;;;17.40;86.60;;;;;;5043793;28;20063;-62
2021/09/04 12:54:54;;;;;;;13.73;7.45;;;17.40;85.50;;;;;;5044291;28;20036;-61
2021/09/04 12:57:22;;;;;;;10.82;6.80;;;17.40;84.40;;;;;;5047162;28;20036;-62
2021/09/04 12:59:53;;;;;;;13.68;7.05;;;17.40;84.60;;;;;;5047770;28;20025;-61
2021/09/04 13:02:24;;;;;;;14.00;7.10;;;17.40;83.10;;;;;;5045820;28;20033;-61
2021/09/04 13:04:53;;;;;;;12.38;7.20;;;17.30;84.10;;;;;;5045363;28;20025;-61
2021/09/04 13:07:19;;;;;;;11.98;7.25;;;17.40;84.60;;;;;;5048565;28;20057;-61
2021/09/04 13:09:45;;;;;;;12.43;6.63;;;17.40;85.00;;;;;;5048337;28;20064;-61
2021/09/04 13:12:12;;;;;;;12.30;7.35;;;17.40;85.40;;;;;;5066745;28;20024;-61
2021/09/04 13:14:38;;;;;;;12.60;6.43;;;17.50;84.90;;;;;;5066675;28;20036;-61
2021/09/04 13:17:05;;;;;;;11.52;6.85;;;17.50;85.30;;;;;;5068654;28;20028;-62
2021/09/04 13:19:31;;;;;;;9.55;6.13;;;17.50;85.80;;;;;;5066760;28;20033;-63
2021/09/04 13:21:56;;;;;;;12.25;6.80;;;17.50;86.30;;;;;;5068651;28;20036;-63
2021/09/04 13:24:22;;;;;;;10.73;6.68;;;17.50;87.30;;;;;;5067864;28;20028;-63
2021/09/04 13:26:47;;;;;;;10.90;6.63;;;17.40;87.20;;;;;;5056702;28;20032;-61
2021/09/04 13:29:13;;;;;;;11.13;6.43;;;17.50;86.10;;;;;;5048129;28;20025;-61
2021/09/04 13:31:43;;;;;;;11.40;6.10;;;17.50;85.30;;;;;;5046589;28;20485;-61
2021/09/04 13:34:10;;;;;;;11.32;6.45;;;17.50;86.30;;;;;;5046185;28;20374;-61
2021/09/04 13:36:36;;;;;;;10.93;6.18;;;17.50;86.60;;;;;;5046641;28;20028;-62
2021/09/04 13:39:02;;;;;;;11.27;6.38;;;17.50;87.20;;;;;;5047958;28;20044;-62
2021/09/04 13:41:27;;;;;;;13.68;6.85;;;17.50;85.90;;;;;;5046516;28;20052;-61
2021/09/04 13:43:53;;;;;;;12.50;6.45;;;17.50;86.60;;;;;;5046081;28;20466;-61
2021/09/04 13:46:19;;;;;;;10.52;6.25;;;17.50;87.20;;;;;;5046491;28;20029;-62
2021/09/04 13:48:44;;;;;;;11.30;6.57;;;17.50;87.20;;;;;;5046314;28;20033;-63
2021/09/04 13:51:10;;;;;;;11.15;6.60;;;17.50;87.50;;;;;;5045929;28;20132;-62
2021/09/04 13:53:35;;;;;;;9.45;6.47;;;17.50;86.70;;;;;;5046928;28;20028;-61
2021/09/04 13:56:01;;;;;;;10.27;6.50;;;17.50;87.40;;;;;;5045208;28;20420;-61
2021/09/04 13:58:26;;;;;;;10.80;6.20;;;17.50;88.00;;;;;;5046960;28;20394;-62
2021/09/04 14:00:52;;;;;;;10.23;6.15;;;17.50;86.80;;;;;;5047252;28;20414;-61
2021/09/04 14:03:17;;;;;;;10.15;6.32;;;17.60;87.30;;;;;;5043170;28;20452;-64
2021/09/04 14:05:43;;;;;;;11.05;6.13;;;17.50;88.00;;;;;;5044181;28;20021;-62
2021/09/04 14:08:08;;;;;;;10.00;6.18;;;17.50;88.30;;;;;;5045047;28;20021;-62
2021/09/04 14:10:34;;;;;;;10.90;6.05;;;17.50;88.40;;;;;;5042183;28;20188;-61
2021/09/04 14:13:00;;;;;;;11.77;6.30;;;17.50;88.90;;;;;;5046663;28;20033;-61
2021/09/04 14:15:25;;;;;;;11.35;5.72;;;17.60;88.70;;;;;;5045516;28;20056;-62
2021/09/04 14:17:51;;;;;;;10.93;5.80;;;17.60;88.50;;;;;;5045653;28;20074;-62
2021/09/04 14:20:16;;;;;;;10.48;6.35;;;17.60;88.70;;;;;;5045767;28;20037;-62
2021/09/04 14:22:42;;;;;;;10.57;6.00;;;17.60;89.10;;;;;;5046246;28;20032;-61
2021/09/04 14:25:08;;;;;;;13.77;7.15;;;17.60;89.00;;;;;;5038106;28;20040;-62
2021/09/04 14:27:33;;;;;;;11.57;6.85;;;17.60;88.80;;;;;;5045182;28;20032;-63
2021/09/04 14:30:02;;;;;;;10.00;6.32;;;17.60;89.10;;;;;;5050301;28;20084;-61
2021/09/04 14:32:27;;;;;;;12.38;7.07;;;17.60;88.20;;;;;;5044081;28;20035;-62
2021/09/04 14:34:53;;;;;;;12.48;6.32;;;17.60;88.90;;;;;;5040129;28;20033;-62
2021/09/04 14:37:18;;;;;;;11.88;6.57;;;17.60;88.90;;;;;;5043703;28;20023;-61
2021/09/04 14:39:44;;;;;;;17.23;7.35;;;17.60;88.60;;;;;;5046426;28;20063;-62
2021/09/04 14:42:10;;;;;;;12.43;7.32;;;17.60;89.10;;;;;;5046122;28;20083;-61
2021/09/04 14:44:35;;;;;;;11.98;6.38;;;17.60;89.10;;;;;;5041538;28;20087;-61
2021/09/04 14:47:01;;;;;;;11.63;6.30;;;17.70;86.10;;;;;;5043862;28;20485;-62
2021/09/04 14:49:27;;;;;;;9.93;6.30;;;17.80;85.10;;;;;;5046265;28;20059;-61
2021/09/04 14:51:52;;;;;;;11.88;6.80;;;17.80;85.10;;;;;;5046584;28;20308;-61
2021/09/04 14:54:18;;;;;;;11.35;6.38;;;17.80;86.50;;;;;;5046177;28;20056;-62
2021/09/04 14:56:45;;;;;;;10.50;6.72;;;17.80;84.80;;;;;;5044830;28;20404;-62
2021/09/04 14:59:11;;;;;;;11.02;6.28;;;17.80;85.00;;;;;;5044605;28;20029;-61
2021/09/04 15:01:37;;;;;;;11.35;6.65;;;17.80;85.60;;;;;;5040452;28;20829;-61
2021/09/04 15:04:03;;;;;;;9.60;6.45;;;17.80;86.10;;;;;;5037350;28;20475;-61
2021/09/04 15:06:30;;;;;;;12.23;7.00;;;17.80;85.30;;;;;;5044088;28;20492;-61
2021/09/04 15:08:55;;;;;;;10.88;6.93;;;17.90;84.30;;;;;;5043899;28;20404;-61
2021/09/04 15:11:21;;;;;;;11.00;6.82;;;17.90;84.10;;;;;;5043500;28;20044;-62
2021/09/04 15:13:49;;;;;;;10.27;6.80;;;17.80;84.30;;;;;;5041236;28;20025;-61
2021/09/04 15:16:18;;;;;;;10.23;6.93;;;17.80;85.90;;;;;;5046105;28;20123;-61
2021/09/04 15:18:43;;;;;;;11.68;6.75;;;17.70;86.60;;;;;;5037065;28;20040;-62
2021/09/04 15:21:09;;;;;;;11.93;7.05;;;17.80;86.00;;;;;;5042825;28;20017;-62
2021/09/04 15:23:41;;;;;;;10.00;7.03;;;17.80;85.60;;;;;;5038547;28;20379;-62
2021/09/04 15:26:08;;;;;;;12.32;7.05;;;17.90;84.20;;;;;;5041173;28;20036;-62
2021/09/04 15:28:33;;;;;;;11.27;6.93;;;17.80;85.60;;;;;;5044327;28;20120;-62
2021/09/04 15:30:59;;;;;;;11.68;6.75;;;17.80;86.20;;;;;;5044178;28;20040;-62
2021/09/04 15:33:24;;;;;;;16.70;7.28;;;17.80;87.00;;;;;;5045630;28;20489;-62
2021/09/04 15:35:50;;;;;;;12.15;6.72;;;17.70;87.60;;;;;;5044494;28;20082;-61
2021/09/04 15:38:16;;;;;;;13.45;6.53;;;17.70;87.30;;;;;;5044630;28;20017;-62
2021/09/04 15:40:41;;;;;;;14.05;7.32;;;17.80;87.30;;;;;;5045834;28;20624;-62
2021/09/04 15:43:07;;;;;;;14.02;6.57;;;17.70;87.70;;;;;;5045516;28;20526;-61
2021/09/04 15:45:33;;;;;;;12.38;7.22;;;17.70;87.40;;;;;;5045333;28;20067;-61
2021/09/04 15:47:59;;;;;;;12.57;6.90;;;17.80;86.20;;;;;;5044331;28;20043;-62
2021/09/04 15:50:26;;;;;;;12.60;7.65;;;17.80;86.90;;;;;;5043828;28;20127;-61
2021/09/04 15:52:52;;;;;;;12.48;7.65;;;17.80;87.60;;;;;;5044167;28;20451;-61
2021/09/04 15:55:18;;;;;;;15.07;7.65;;;17.80;87.90;;;;;;5045541;28;20057;-61
2021/09/04 15:57:44;;;;;;;11.90;7.55;;;17.80;88.00;;;;;;5044422;28;20102;-63
2021/09/04 16:00:10;;;;;;;13.13;7.25;;;17.80;87.80;;;;;;5046275;28;20025;-63
2021/09/04 16:02:36;;;;;;;12.60;7.20;;;17.70;88.30;;;;;;5045145;28;20021;-63
2021/09/04 16:05:02;;;;;;;12.05;7.72;;;17.70;88.20;;;;;;5045521;28;20179;-63
2021/09/04 16:07:29;;;;;;;11.23;7.60;;;17.80;87.60;;;;;;5044592;28;20056;-63
2021/09/04 16:09:54;;;;;;;11.77;7.45;;;17.80;86.70;;;;;;5044656;28;20111;-63
2021/09/04 16:12:20;;;;;;;12.93;8.65;;;17.80;85.30;;;;;;5045260;28;20036;-62
2021/09/04 16:14:45;;;;;;;11.85;8.90;;;17.90;84.40;;;;;;5045082;28;20040;-61
2021/09/04 16:17:11;;;;;;;10.50;7.90;;;17.90;83.60;;;;;;5045077;28;20536;-61
2021/09/04 16:19:36;;;;;;;11.90;8.35;;;17.90;85.60;;;;;;5045384;28;20021;-61
2021/09/04 16:22:02;;;;;;;11.55;7.40;;;17.80;86.20;;;;;;5045249;28;20032;-63
2021/09/04 16:24:28;;;;;;;13.05;7.72;;;17.70;86.90;;;;;;5043514;28;20025;-62
2021/09/04 16:26:54;;;;;;;11.90;8.68;;;17.70;87.40;;;;;;5044002;28;20025;-62
2021/09/04 16:29:19;;;;;;;15.73;9.40;;;17.70;86.30;;;;;;5045386;28;20060;-63
2021/09/04 16:31:45;;;;;;;14.85;10.25;;;17.80;85.50;;;;;;5044769;28;20055;-62
2021/09/04 16:34:10;;;;;;;14.52;10.07;;;17.80;84.80;;;;;;5044862;28;20029;-62
2021/09/04 16:36:36;;;;;;;15.65;10.23;;;17.90;84.10;;;;;;5043576;28;20078;-62
2021/09/04 16:39:02;;;;;;;13.38;10.50;;;17.90;84.00;;;;;;5044918;28;20021;-62
2021/09/04 16:41:27;;;;;;;16.13;9.93;;;17.80;84.30;;;;;;5045246;28;20024;-62
2021/09/04 16:43:53;;;;;;;15.82;11.02;;;17.80;84.60;;;;;;5044668;28;20025;-62
2021/09/04 16:46:18;;;;;;;17.98;10.98;;;17.90;84.70;;;;;;5043906;28;20033;-62
2021/09/04 16:48:44;;;;;;;14.77;11.15;;;17.80;84.90;;;;;;5043849;28;20479;-63
2021/09/04 16:51:09;;;;;;;14.38;10.38;;;17.80;85.00;;;;;;5045037;28;20470;-62
2021/09/04 16:53:35;;;;;;;15.73;11.55;;;17.80;84.40;;;;;;5044607;28;20090;-62
2021/09/04 16:56:00;;;;;;;15.45;11.80;;;17.80;84.40;;;;;;5044876;28;20136;-62
2021/09/04 16:58:26;;;;;;;15.23;11.32;;;17.80;84.10;;;;;;5045478;28;20044;-63
2021/09/04 17:00:51;;;;;;;16.27;11.13;;;17.80;84.30;;;;;;5044665;28;20017;-62
2021/09/04 17:03:17;;;;;;;14.88;10.93;;;17.80;84.60;;;;;;5044628;28;20242;-62
2021/09/04 17:05:43;;;;;;;15.10;10.75;;;17.70;85.20;;;;;;5044852;28;20028;-62
2021/09/04 17:08:08;;;;;;;15.45;11.25;;;17.70;85.50;;;;;;5044894;28;20029;-62
2021/09/04 17:10:34;;;;;;;15.02;10.90;;;17.60;85.50;;;;;;5043137;28;20040;-63